KTIK/TIK METAR and TAF weather

Enter ICAO airport designator
Station Type Date Time Source
KTIK METAR 2019/06/18 15:56 UTC NOAA

KTIK 181556Z AUTO 00000KT 10SM FEW170 SCT200 27/19 A2994 RMK AO2 SLP133 T02720187 $


Station Type Date Time Source
KTIK Decoded METAR 2019/06/18 15:56 UTC NOAA

Tinker Air Force Base, OK, United States (KTIK) 35-25N 097-23W 397M
Jun 18, 2019 - 11:56 AM EDT / 2019.06.18 1556 UTC
Wind: Calm:0
Visibility: 10 mile(s):0
Sky conditions: partly cloudy
Temperature: 81.0 F (27.2 C)
Dew Point: 65.7 F (18.7 C)
Relative Humidity: 59%
Pressure (altimeter): 29.94 in. Hg (1013 hPa)
ob: KTIK 181556Z AUTO 00000KT 10SM FEW170 SCT200 27/19 A2994 RMK AO2 SLP133 T02720187
cycle: 16

Station Type Date Time Source
KTIK TAF 2019/06/18 09:09 UTC NOAA

TAF KTIK 180900Z 1809/1915 17006KT 9999 SCT120 QNH2978INS
BECMG 1902/1903 17006KT 8000 -SHRA SCT018 BKN070 QNH2976INS
TEMPO 1903/1908 VRB15G25KT 6000 -TSRA BKN018CB
BECMG 1914/1915 35006KT 9999 NSW BKN030 QNH2976INS TX31/1821Z TN18/1811Z

Example: see airport list